Aviation Digital Data Service (ADDS)

Output produced by METARs form (0341 UTC 21 September 2018)
found at http://www.aviationweather.gov/metar/data/
 
KDOV 210256Z AUTO 12004KT 10SM SCT060 20/17 A3024 RMK AO2 SLP243 T01990169 $
TAF KDOV 210000Z 2100/2206 13009KT 9999 BKN025 OVC040 QNH3002INS 
     BECMG 2109/2110 16009KT 9999 SCT010 BKN020 QNH3015INS 
     BECMG 2114/2115 18012KT 9999 BKN020 QNH3000INS TX24/2119Z TN17/2110Z